createdAt,value
2023-02-19T00:00:50.261Z,12.60
2023-02-19T00:02:53.214Z,12.40
2023-02-19T00:04:56.143Z,11.43
2023-02-19T00:06:59.155Z,12.33
2023-02-19T00:09:02.776Z,12.67
2023-02-19T00:11:06.977Z,12.80
2023-02-19T00:13:09.971Z,13.40
2023-02-19T00:15:12.857Z,13.60
2023-02-19T00:17:17.102Z,14.40
2023-02-19T00:19:21.941Z,13.77
2023-02-19T00:21:25.468Z,16.13
2023-02-19T00:23:29.350Z,16.50
2023-02-19T00:25:32.226Z,15.23
2023-02-19T00:27:35.140Z,17.20
2023-02-19T00:29:38.067Z,15.93
2023-02-19T00:31:41.494Z,16.17
2023-02-19T00:33:45.921Z,17.27
2023-02-19T00:35:48.790Z,17.80
2023-02-19T00:37:52.058Z,18.20
2023-02-19T00:39:54.954Z,17.20
2023-02-19T00:41:59.392Z,18.17
2023-02-19T00:44:03.813Z,18.73
2023-02-19T00:46:06.745Z,20.03
2023-02-19T00:48:09.699Z,19.50
2023-02-19T00:50:13.953Z,20.20
2023-02-19T00:52:17.227Z,21.57
2023-02-19T00:54:20.510Z,21.23
2023-02-19T00:56:24.194Z,21.53
2023-02-19T00:58:27.442Z,21.40
2023-02-19T01:00:34.722Z,22.83
2023-02-19T01:02:37.959Z,20.83
2023-02-19T01:04:40.931Z,21.83
2023-02-19T01:06:45.416Z,23.37
2023-02-19T01:08:49.150Z,21.50
2023-02-19T01:10:52.160Z,19.73
2023-02-19T01:12:56.227Z,20.50
2023-02-19T01:14:59.104Z,21.00
2023-02-19T01:17:02.293Z,19.43
2023-02-19T01:19:05.509Z,17.90
2023-02-19T01:21:10.135Z,17.00
2023-02-19T01:23:15.398Z,18.10
2023-02-19T01:25:18.280Z,15.10
2023-02-19T01:27:21.741Z,13.17
2023-02-19T01:29:24.638Z,13.37
2023-02-19T01:31:28.182Z,12.43
2023-02-19T01:33:31.345Z,12.67
2023-02-19T01:35:34.594Z,13.40
2023-02-19T01:37:37.463Z,12.07
2023-02-19T01:39:41.715Z,13.30
2023-02-19T01:41:45.352Z,13.50
2023-02-19T01:43:58.150Z,14.07
2023-02-19T01:46:01.418Z,13.73
2023-02-19T01:48:08.308Z,13.13
2023-02-19T01:50:11.816Z,14.40
2023-02-19T01:52:17.114Z,14.87
2023-02-19T01:54:21.660Z,14.20
2023-02-19T01:56:27.115Z,14.70
2023-02-19T01:58:32.876Z,15.53
2023-02-19T02:00:35.954Z,16.07
2023-02-19T02:02:39.794Z,19.03
2023-02-19T02:04:42.723Z,19.03
2023-02-19T02:06:49.604Z,19.10
2023-02-19T02:09:11.733Z,20.60
2023-02-19T02:11:14.630Z,20.13
2023-02-19T02:13:19.259Z,21.47
2023-02-19T02:15:24.116Z,22.17
2023-02-19T02:17:29.377Z,22.00
2023-02-19T02:19:45.651Z,22.37
2023-02-19T02:22:00.308Z,24.07
2023-02-19T02:24:13.867Z,23.70
2023-02-19T02:26:26.514Z,22.43
2023-02-19T02:28:42.671Z,23.90
2023-02-19T02:30:48.829Z,22.40
2023-02-19T02:32:56.241Z,22.33
2023-02-19T02:35:01.458Z,21.73
2023-02-19T02:37:08.031Z,21.33
2023-02-19T02:39:14.308Z,20.43
2023-02-19T02:41:17.603Z,20.37
2023-02-19T02:43:20.546Z,20.33
2023-02-19T02:45:36.890Z,19.90
2023-02-19T02:48:00.617Z,20.37
2023-02-19T02:50:06.804Z,20.27
2023-02-19T02:52:35.465Z,21.03
2023-02-19T02:54:55.832Z,19.23
2023-02-19T02:56:59.583Z,17.90
2023-02-19T02:59:07.932Z,18.40
2023-02-19T03:01:30.716Z,19.83
2023-02-19T03:03:36.403Z,19.27
2023-02-19T03:05:54.437Z,20.27
2023-02-19T03:08:00.229Z,20.00
2023-02-19T03:10:04.804Z,21.83
2023-02-19T03:12:29.845Z,19.40
2023-02-19T03:14:54.325Z,19.60
2023-02-19T03:17:17.418Z,18.47
2023-02-19T03:19:23.460Z,19.10
2023-02-19T03:21:27.425Z,19.47
2023-02-19T03:23:47.194Z,20.90
2023-02-19T03:26:05.791Z,22.03
2023-02-19T03:28:19.279Z,22.63
2023-02-19T03:30:24.743Z,22.50
2023-02-19T03:32:31.223Z,23.27
2023-02-19T03:34:37.417Z,23.20
2023-02-19T03:36:43.683Z,24.03
2023-02-19T03:38:50.411Z,22.23
2023-02-19T03:40:57.613Z,23.50
2023-02-19T03:43:04.620Z,22.07
2023-02-19T03:45:16.453Z,23.57
2023-02-19T03:47:24.571Z,21.37
2023-02-19T03:49:32.163Z,20.97
2023-02-19T03:51:40.371Z,20.20
2023-02-19T03:53:50.918Z,20.10
2023-02-19T03:56:04.648Z,21.20
2023-02-19T03:58:13.199Z,21.13
2023-02-19T04:00:19.451Z,20.00
2023-02-19T04:02:29.199Z,20.37
2023-02-19T04:04:33.910Z,20.07
2023-02-19T04:06:38.513Z,21.10
2023-02-19T04:08:44.448Z,18.70
2023-02-19T04:10:48.365Z,17.63
2023-02-19T04:12:55.618Z,19.03
2023-02-19T04:15:01.113Z,17.63
2023-02-19T04:17:09.918Z,18.30
2023-02-19T04:19:13.783Z,17.80
2023-02-19T04:21:16.955Z,18.00
2023-02-19T04:23:24.534Z,16.53
2023-02-19T04:25:28.469Z,15.33
2023-02-19T04:27:31.400Z,15.53
2023-02-19T04:29:34.227Z,15.80
2023-02-19T04:31:37.547Z,14.97
2023-02-19T04:33:40.423Z,12.97
2023-02-19T04:35:43.519Z,12.73
2023-02-19T04:37:46.330Z,12.93
2023-02-19T04:39:50.532Z,12.20
2023-02-19T04:41:53.602Z,12.93
2023-02-19T04:43:56.785Z,13.03
2023-02-19T04:46:01.697Z,12.67
2023-02-19T04:48:04.879Z,13.87
2023-02-19T04:50:08.019Z,14.80
2023-02-19T04:52:11.070Z,14.40
2023-02-19T04:54:14.244Z,15.20
2023-02-19T04:56:18.826Z,13.03
2023-02-19T04:58:22.525Z,13.43
2023-02-19T05:00:25.341Z,13.40
2023-02-19T05:02:28.569Z,13.93
2023-02-19T05:04:31.617Z,14.00
2023-02-19T05:06:35.103Z,13.50
2023-02-19T05:08:38.070Z,13.00
2023-02-19T05:10:40.930Z,14.00
2023-02-19T05:12:45.385Z,13.03
2023-02-19T05:14:48.288Z,13.77
2023-02-19T05:16:51.731Z,13.70
2023-02-19T05:18:54.819Z,13.60
2023-02-19T05:20:58.474Z,14.60
2023-02-19T05:23:01.315Z,14.20
2023-02-19T05:25:04.500Z,14.70
2023-02-19T05:27:07.354Z,14.53
2023-02-19T05:29:11.573Z,14.97
2023-02-19T05:31:15.377Z,14.90
2023-02-19T05:33:19.811Z,13.27
2023-02-19T05:35:22.754Z,14.10
2023-02-19T05:37:25.737Z,13.83
2023-02-19T05:39:29.024Z,14.73
2023-02-19T05:41:32.074Z,13.80
2023-02-19T05:43:36.681Z,14.70
2023-02-19T05:45:41.466Z,14.97
2023-02-19T05:47:44.722Z,14.33
2023-02-19T05:49:47.867Z,15.77
2023-02-19T05:51:52.460Z,14.23
2023-02-19T05:53:59.646Z,15.30
2023-02-19T05:56:02.635Z,17.10
2023-02-19T05:58:06.391Z,15.53
2023-02-19T06:00:12.295Z,16.07
2023-02-19T06:02:16.478Z,15.37
2023-02-19T06:04:27.370Z,14.87
2023-02-19T06:06:30.776Z,14.83
2023-02-19T06:08:33.863Z,14.20
2023-02-19T06:10:37.860Z,16.23
2023-02-19T06:12:40.844Z,16.57
2023-02-19T06:14:44.035Z,15.27
2023-02-19T06:16:46.929Z,14.37
2023-02-19T06:18:51.431Z,14.30
2023-02-19T06:20:54.263Z,15.43
2023-02-19T06:22:57.196Z,15.33
2023-02-19T06:25:00.367Z,15.50
2023-02-19T06:27:06.768Z,15.90
2023-02-19T06:29:09.652Z,16.83
2023-02-19T06:31:15.484Z,15.20
2023-02-19T06:33:18.591Z,14.20
2023-02-19T06:35:23.262Z,15.23
2023-02-19T06:37:26.084Z,14.77
2023-02-19T06:39:29.015Z,14.20
2023-02-19T06:41:31.954Z,14.30
2023-02-19T06:43:35.537Z,14.73
2023-02-19T06:45:38.373Z,13.33
2023-02-19T06:47:41.257Z,13.80
2023-02-19T06:49:44.119Z,13.60
2023-02-19T06:51:48.397Z,13.63
2023-02-19T06:53:51.593Z,13.10
2023-02-19T06:55:58.317Z,14.23
2023-02-19T06:58:01.405Z,13.20
2023-02-19T07:00:05.361Z,13.53
2023-02-19T07:02:08.645Z,13.60
2023-02-19T07:04:11.929Z,13.73
2023-02-19T07:06:14.940Z,12.87
2023-02-19T07:08:19.616Z,13.87
2023-02-19T07:10:22.601Z,13.50
2023-02-19T07:12:25.515Z,13.60
2023-02-19T07:14:29.687Z,13.37
2023-02-19T07:16:32.718Z,13.33
2023-02-19T07:18:36.133Z,13.43
2023-02-19T07:20:38.995Z,13.60
2023-02-19T07:22:42.065Z,13.83
2023-02-19T07:24:47.952Z,14.70
2023-02-19T07:26:50.951Z,13.50
2023-02-19T07:28:54.438Z,13.47
2023-02-19T07:31:01.373Z,12.23
2023-02-19T07:33:04.447Z,13.33
2023-02-19T07:35:08.305Z,13.90
2023-02-19T07:37:11.140Z,12.50
2023-02-19T07:39:15.694Z,12.10
2023-02-19T07:41:20.305Z,12.07
2023-02-19T07:43:24.376Z,13.77
2023-02-19T07:45:53.056Z,12.67
2023-02-19T07:47:55.965Z,13.77
2023-02-19T07:49:58.787Z,11.90
2023-02-19T07:52:01.759Z,12.10
2023-02-19T07:54:04.842Z,12.97
2023-02-19T07:56:08.901Z,12.20
2023-02-19T07:58:13.392Z,13.20
2023-02-19T08:00:16.936Z,12.17
2023-02-19T08:02:38.944Z,13.03
2023-02-19T08:04:41.812Z,12.80
2023-02-19T08:06:44.959Z,12.73
2023-02-19T08:08:47.935Z,12.30
2023-02-19T08:11:08.590Z,12.30
2023-02-19T08:13:19.601Z,12.60
2023-02-19T08:15:22.584Z,13.40
2023-02-19T08:17:25.538Z,12.90
2023-02-19T08:19:28.469Z,13.50
2023-02-19T08:21:33.427Z,12.73
2023-02-19T08:23:37.210Z,12.67
2023-02-19T08:25:40.564Z,12.27
2023-02-19T08:27:43.590Z,13.37
2023-02-19T08:29:47.805Z,12.20
2023-02-19T08:31:50.758Z,14.57
2023-02-19T08:33:53.733Z,13.70
2023-02-19T08:35:56.640Z,12.93
2023-02-19T08:38:00.139Z,13.60
2023-02-19T08:40:03.163Z,13.67
2023-02-19T08:42:09.453Z,12.60
2023-02-19T08:44:12.265Z,12.33
2023-02-19T08:46:16.631Z,11.93
2023-02-19T08:48:19.706Z,11.77
2023-02-19T08:50:22.908Z,11.67
2023-02-19T08:52:25.717Z,12.20
2023-02-19T08:54:28.540Z,11.10
2023-02-19T08:56:31.383Z,11.33
2023-02-19T08:58:34.545Z,9.80
2023-02-19T09:00:37.514Z,8.40
2023-02-19T09:02:41.704Z,9.70
2023-02-19T09:04:49.804Z,9.80
2023-02-19T09:06:52.951Z,9.23
2023-02-19T09:08:55.804Z,9.30
2023-02-19T09:10:59.701Z,9.90
2023-02-19T09:13:02.740Z,9.83
2023-02-19T09:15:06.105Z,10.30
2023-02-19T09:17:10.514Z,8.93
2023-02-19T09:19:14.821Z,9.30
2023-02-19T09:21:17.683Z,10.27
2023-02-19T09:23:20.501Z,9.80
2023-02-19T09:25:23.367Z,9.60
2023-02-19T09:27:26.243Z,9.60
2023-02-19T09:29:30.152Z,9.30
2023-02-19T09:31:35.246Z,9.90
2023-02-19T09:33:38.476Z,10.80
2023-02-19T09:35:42.876Z,9.30
2023-02-19T09:37:45.932Z,8.83
2023-02-19T09:39:48.822Z,9.00
2023-02-19T09:41:53.678Z,9.97
2023-02-19T09:43:56.919Z,10.00
2023-02-19T09:46:04.538Z,10.33
2023-02-19T09:48:09.796Z,10.33
2023-02-19T09:50:16.048Z,10.13
2023-02-19T09:52:26.797Z,10.07
2023-02-19T09:54:31.706Z,10.10
2023-02-19T09:56:34.996Z,12.10
2023-02-19T09:58:44.239Z,10.93
2023-02-19T10:00:49.142Z,11.63
2023-02-19T10:02:53.610Z,11.17
2023-02-19T10:04:56.487Z,11.83
2023-02-19T10:07:03.627Z,11.40
2023-02-19T10:09:20.212Z,11.00
2023-02-19T10:11:24.895Z,11.50
2023-02-19T10:13:32.560Z,10.90
2023-02-19T10:15:37.897Z,10.73
2023-02-19T10:17:40.764Z,9.70
2023-02-19T10:19:44.056Z,9.70
2023-02-19T10:21:47.505Z,9.00
2023-02-19T10:23:53.514Z,9.17
2023-02-19T10:25:59.282Z,9.73
2023-02-19T10:28:02.919Z,8.63
2023-02-19T10:30:07.545Z,8.47
2023-02-19T10:32:14.381Z,10.60
2023-02-19T10:34:22.097Z,9.43
2023-02-19T10:36:31.899Z,9.57
2023-02-19T10:38:37.880Z,9.30
2023-02-19T10:40:45.051Z,8.63
2023-02-19T10:42:50.558Z,8.33
2023-02-19T10:44:58.702Z,9.10
2023-02-19T10:47:02.228Z,8.70
2023-02-19T10:49:06.752Z,10.13
2023-02-19T10:51:11.078Z,9.00
2023-02-19T10:53:23.445Z,8.87
2023-02-19T10:55:29.551Z,7.50
2023-02-19T10:57:33.382Z,8.40
2023-02-19T10:59:37.939Z,8.87
2023-02-19T11:01:54.774Z,9.00
2023-02-19T11:04:18.234Z,7.47
2023-02-19T11:06:22.881Z,7.13
2023-02-19T11:08:25.858Z,7.30
2023-02-19T11:10:30.184Z,7.40
2023-02-19T11:12:34.781Z,7.07
2023-02-19T11:14:42.808Z,7.30
2023-02-19T11:16:47.871Z,7.47
2023-02-19T11:18:57.256Z,6.53
2023-02-19T11:21:02.543Z,7.93
2023-02-19T11:23:14.617Z,4.80
2023-02-19T11:25:21.688Z,3.60
2023-02-19T11:27:25.956Z,3.33
2023-02-19T11:29:34.657Z,3.70
2023-02-19T11:31:39.230Z,2.97
2023-02-19T11:33:45.323Z,2.53
2023-02-19T11:35:48.849Z,2.63
2023-02-19T11:37:56.848Z,2.47
2023-02-19T11:39:59.960Z,2.50
2023-02-19T11:42:22.951Z,2.57
2023-02-19T11:44:33.010Z,2.23
2023-02-19T11:46:41.854Z,2.33
2023-02-19T11:48:54.726Z,2.67
2023-02-19T11:51:10.242Z,2.47
2023-02-19T11:53:18.238Z,2.10
2023-02-19T11:55:26.795Z,2.20
2023-02-19T11:57:39.447Z,2.23
2023-02-19T11:59:46.928Z,1.93
2023-02-19T12:02:12.798Z,2.40
2023-02-19T12:04:43.913Z,2.03
2023-02-19T12:06:54.421Z,2.20
2023-02-19T12:09:17.761Z,2.20
2023-02-19T12:11:41.836Z,2.10
2023-02-19T12:13:57.195Z,2.80
2023-02-19T12:16:11.358Z,2.40
2023-02-19T12:18:28.673Z,3.27
2023-02-19T12:20:36.190Z,2.50
2023-02-19T12:22:42.950Z,2.90
2023-02-19T12:25:05.590Z,3.80
2023-02-19T12:27:20.512Z,3.60
2023-02-19T12:29:45.426Z,3.87
2023-02-19T12:32:07.642Z,3.37
2023-02-19T12:34:31.698Z,3.07
2023-02-19T12:36:39.152Z,4.20
2023-02-19T12:38:45.469Z,10.70
2023-02-19T12:40:59.051Z,11.07
2023-02-19T12:43:11.208Z,3.40
2023-02-19T12:45:20.175Z,2.83
2023-02-19T12:47:26.113Z,3.00
2023-02-19T12:49:33.485Z,2.53
2023-02-19T12:51:40.686Z,4.23
2023-02-19T12:53:47.942Z,2.67
2023-02-19T12:55:51.139Z,2.67
2023-02-19T12:57:55.143Z,1.70
2023-02-19T13:00:03.627Z,1.70
2023-02-19T13:02:13.886Z,2.20
2023-02-19T13:04:26.416Z,1.90
2023-02-19T13:06:37.044Z,2.80
2023-02-19T13:09:04.721Z,2.20
2023-02-19T13:11:08.093Z,2.40
2023-02-19T13:13:15.258Z,1.97
2023-02-19T13:15:22.886Z,2.10
2023-02-19T13:17:28.893Z,2.20
2023-02-19T13:19:32.273Z,1.90
2023-02-19T13:21:55.852Z,2.27
2023-02-19T13:24:03.308Z,1.93
2023-02-19T13:26:24.727Z,5.20
2023-02-19T13:28:48.631Z,2.60
2023-02-19T13:31:08.759Z,3.17
2023-02-19T13:33:27.005Z,3.33
2023-02-19T13:35:52.606Z,2.97
2023-02-19T13:38:01.796Z,2.80
2023-02-19T13:40:20.792Z,3.37
2023-02-19T13:42:26.878Z,3.00
2023-02-19T13:44:31.463Z,3.57
2023-02-19T13:46:37.860Z,3.90
2023-02-19T13:48:43.366Z,4.27
2023-02-19T13:50:46.231Z,4.97
2023-02-19T13:52:49.136Z,5.57
2023-02-19T13:54:53.420Z,5.70
2023-02-19T13:57:48.830Z,4.70
2023-02-19T13:59:52.123Z,7.60
2023-02-19T14:02:14.447Z,8.03
2023-02-19T14:04:21.018Z,7.60
2023-02-19T14:06:24.160Z,8.50
2023-02-19T14:08:49.252Z,7.33
2023-02-19T14:10:57.648Z,6.93
2023-02-19T14:13:00.614Z,6.40
2023-02-19T14:15:44.583Z,7.40
2023-02-19T14:17:47.568Z,7.40
2023-02-19T14:19:55.875Z,6.90
2023-02-19T14:21:59.104Z,10.73
2023-02-19T14:24:03.016Z,10.63
2023-02-19T14:26:08.151Z,10.17
2023-02-19T14:28:30.711Z,9.83
2023-02-19T14:30:35.744Z,11.50
2023-02-19T14:32:42.192Z,10.60
2023-02-19T14:34:46.728Z,12.47
2023-02-19T14:36:51.816Z,12.10
2023-02-19T14:38:56.568Z,12.53
2023-02-19T14:40:59.845Z,11.57
2023-02-19T14:43:05.960Z,12.87
2023-02-19T14:45:09.918Z,13.50
2023-02-19T14:47:15.751Z,13.57
2023-02-19T14:49:22.370Z,13.13
2023-02-19T14:51:32.726Z,11.90
2023-02-19T14:53:43.478Z,10.23
2023-02-19T14:55:47.941Z,11.17
2023-02-19T14:57:51.594Z,11.73
2023-02-19T14:59:58.625Z,10.80
2023-02-19T15:02:03.646Z,10.93
2023-02-19T15:04:07.321Z,10.37
2023-02-19T15:06:16.404Z,9.60
2023-02-19T15:08:24.018Z,9.50
2023-02-19T15:10:28.335Z,8.27
2023-02-19T15:12:34.843Z,9.00
2023-02-19T15:14:37.708Z,7.90
2023-02-19T15:16:41.942Z,8.70
2023-02-19T15:18:46.285Z,8.27
2023-02-19T15:20:49.846Z,8.47
2023-02-19T15:22:53.492Z,7.67
2023-02-19T15:24:56.477Z,7.53
2023-02-19T15:26:59.432Z,8.30
2023-02-19T15:29:04.503Z,7.13
2023-02-19T15:31:14.962Z,7.50
2023-02-19T15:33:20.708Z,8.50
2023-02-19T15:35:25.158Z,6.53
2023-02-19T15:37:29.471Z,7.43
2023-02-19T15:39:39.136Z,8.03
2023-02-19T15:41:45.028Z,7.50
2023-02-19T15:43:51.229Z,8.30
2023-02-19T15:45:56.627Z,8.47
2023-02-19T15:48:01.615Z,8.93
2023-02-19T15:50:09.581Z,9.40
2023-02-19T15:52:18.875Z,10.67
2023-02-19T15:54:27.182Z,10.10
2023-02-19T15:56:35.923Z,9.17
2023-02-19T15:58:42.801Z,10.63
2023-02-19T16:00:48.466Z,9.23
2023-02-19T16:02:51.730Z,10.17
2023-02-19T16:04:54.596Z,10.60
2023-02-19T16:06:59.792Z,9.83
2023-02-19T16:09:04.626Z,10.60
2023-02-19T16:11:08.821Z,10.27
2023-02-19T16:13:12.917Z,11.10
2023-02-19T16:15:16.293Z,11.03
2023-02-19T16:17:21.264Z,11.53
2023-02-19T16:19:28.223Z,12.30
2023-02-19T16:21:31.398Z,11.13
2023-02-19T16:23:35.639Z,11.60
2023-02-19T16:25:42.753Z,12.33
2023-02-19T16:27:45.622Z,11.20
2023-02-19T16:29:51.757Z,10.77
2023-02-19T16:31:57.911Z,11.40
2023-02-19T16:34:17.250Z,11.40
2023-02-19T16:36:41.559Z,13.50
2023-02-19T16:39:01.188Z,11.60
2023-02-19T16:41:13.239Z,12.90
2023-02-19T16:43:31.237Z,12.20
2023-02-19T16:45:34.409Z,12.90
2023-02-19T16:47:41.614Z,11.40
2023-02-19T16:49:44.956Z,11.60
2023-02-19T16:51:48.384Z,10.47
2023-02-19T16:53:51.330Z,10.93
2023-02-19T16:55:55.539Z,11.27
2023-02-19T16:57:58.448Z,10.00
2023-02-19T17:00:01.280Z,8.80
2023-02-19T17:02:05.145Z,9.20
2023-02-19T17:04:09.484Z,8.77
2023-02-19T17:06:12.825Z,8.87
2023-02-19T17:08:33.871Z,8.47
2023-02-19T17:10:36.829Z,7.23
2023-02-19T17:12:41.061Z,6.77
2023-02-19T17:14:43.995Z,7.10
2023-02-19T17:16:47.056Z,7.27
2023-02-19T17:18:50.376Z,6.17
2023-02-19T17:20:56.502Z,6.23
2023-02-19T17:22:59.502Z,6.07
2023-02-19T17:25:02.446Z,6.20
2023-02-19T17:27:05.394Z,5.67
2023-02-19T17:29:14.337Z,6.50
2023-02-19T17:31:17.841Z,5.63
2023-02-19T17:33:20.847Z,6.33
2023-02-19T17:35:23.793Z,7.00
2023-02-19T17:37:26.716Z,8.00
2023-02-19T17:39:29.595Z,9.53
2023-02-19T17:41:32.525Z,9.53
2023-02-19T17:43:35.828Z,9.60
2023-02-19T17:45:40.208Z,8.80
2023-02-19T17:47:43.185Z,8.97
2023-02-19T17:49:46.107Z,8.00
2023-02-19T17:51:48.923Z,9.00
2023-02-19T17:53:51.812Z,8.00
2023-02-19T17:55:54.764Z,8.47
2023-02-19T17:57:57.751Z,8.40
2023-02-19T18:00:00.669Z,8.67
2023-02-19T18:02:05.035Z,8.73
2023-02-19T18:04:08.260Z,8.85
2023-02-19T18:06:11.354Z,8.67
2023-02-19T18:08:14.904Z,8.10
2023-02-19T18:10:19.442Z,8.47
2023-02-19T18:12:22.410Z,7.40
2023-02-19T18:14:25.358Z,6.90
2023-02-19T18:16:28.326Z,7.80
2023-02-19T18:18:33.031Z,7.27
2023-02-19T18:20:36.092Z,6.23
2023-02-19T18:22:41.395Z,6.60
2023-02-19T18:24:46.899Z,5.80
2023-02-19T18:26:51.181Z,7.10
2023-02-19T18:28:54.157Z,6.53
2023-02-19T18:30:57.206Z,7.37
2023-02-19T18:33:00.109Z,7.10
2023-02-19T18:35:05.518Z,8.43
2023-02-19T18:37:08.433Z,8.10
2023-02-19T18:39:11.665Z,9.00
2023-02-19T18:41:19.798Z,9.10
2023-02-19T18:43:23.134Z,9.60
2023-02-19T18:45:26.106Z,11.90
2023-02-19T18:47:29.459Z,11.87
2023-02-19T18:49:32.504Z,12.93
2023-02-19T18:51:36.788Z,12.27
2023-02-19T18:53:39.806Z,13.57
2023-02-19T18:55:42.945Z,12.13
2023-02-19T18:57:46.645Z,13.70
2023-02-19T18:59:49.716Z,11.90
2023-02-19T19:01:53.626Z,11.87
2023-02-19T19:03:56.577Z,8.40
2023-02-19T19:05:59.687Z,6.00
2023-02-19T19:08:03.873Z,5.13
2023-02-19T19:10:08.392Z,4.17
2023-02-19T19:12:11.450Z,4.27
2023-02-19T19:14:14.387Z,3.80
2023-02-19T19:16:17.214Z,3.40
2023-02-19T19:18:20.086Z,3.80
2023-02-19T19:20:23.911Z,5.10
2023-02-19T19:22:26.801Z,7.00
2023-02-19T19:24:31.041Z,5.80
2023-02-19T19:26:34.685Z,4.07
2023-02-19T19:28:40.675Z,5.37
2023-02-19T19:30:43.888Z,6.50
2023-02-19T19:32:48.885Z,4.70
2023-02-19T19:34:51.749Z,5.03
2023-02-19T19:36:54.608Z,4.10
2023-02-19T19:38:57.446Z,4.93
2023-02-19T19:41:01.692Z,3.13
2023-02-19T19:43:04.618Z,2.80
2023-02-19T19:45:09.381Z,3.97
2023-02-19T19:47:12.279Z,4.27
2023-02-19T19:49:18.661Z,6.33
2023-02-19T19:51:21.552Z,6.80
2023-02-19T19:53:24.404Z,3.97
2023-02-19T19:55:27.444Z,4.50
2023-02-19T19:57:32.001Z,3.90
2023-02-19T19:59:36.899Z,4.20
2023-02-19T20:01:41.413Z,5.10
2023-02-19T20:03:44.363Z,5.33
2023-02-19T20:05:47.902Z,5.37
2023-02-19T20:07:50.896Z,5.87
2023-02-19T20:09:53.988Z,5.50
2023-02-19T20:11:57.137Z,6.53
2023-02-19T20:14:01.733Z,6.97
2023-02-19T20:16:06.096Z,5.70
2023-02-19T20:18:09.098Z,6.63
2023-02-19T20:20:12.481Z,6.27
2023-02-19T20:22:15.374Z,6.73
2023-02-19T20:24:19.185Z,7.00
2023-02-19T20:26:23.543Z,6.80
2023-02-19T20:28:26.473Z,6.70
2023-02-19T20:30:30.702Z,6.70
2023-02-19T20:32:33.658Z,6.10
2023-02-19T20:34:38.164Z,6.67
2023-02-19T20:36:43.651Z,7.00
2023-02-19T20:38:46.684Z,7.33
2023-02-19T20:40:49.793Z,7.00
2023-02-19T20:42:53.003Z,7.60
2023-02-19T20:44:57.438Z,7.33
2023-02-19T20:47:01.983Z,6.90
2023-02-19T20:49:04.822Z,7.60
2023-02-19T20:51:07.697Z,7.37
2023-02-19T20:53:11.126Z,7.23
2023-02-19T20:55:14.056Z,7.03
2023-02-19T20:57:16.920Z,7.70
2023-02-19T20:59:21.585Z,7.43
2023-02-19T21:01:27.030Z,6.70
2023-02-19T21:03:31.310Z,6.00
2023-02-19T21:05:34.276Z,7.17
2023-02-19T21:07:37.127Z,6.90
2023-02-19T21:09:40.038Z,6.53
2023-02-19T21:11:44.605Z,6.13
2023-02-19T21:13:47.791Z,7.73
2023-02-19T21:15:50.699Z,7.57
2023-02-19T21:17:53.724Z,7.70
2023-02-19T21:19:57.953Z,7.77
2023-02-19T21:22:01.138Z,7.70
2023-02-19T21:24:06.020Z,7.70
2023-02-19T21:26:08.954Z,8.13
2023-02-19T21:28:12.448Z,8.20
2023-02-19T21:30:15.461Z,8.20
2023-02-19T21:32:18.461Z,7.30
2023-02-19T21:34:23.210Z,8.33
2023-02-19T21:36:27.505Z,9.03
2023-02-19T21:38:32.403Z,8.77
2023-02-19T21:40:35.444Z,7.80
2023-02-19T21:42:38.302Z,8.97
2023-02-19T21:44:44.381Z,8.80
2023-02-19T21:46:47.294Z,8.90
2023-02-19T21:48:50.260Z,9.30
2023-02-19T21:50:53.192Z,8.57
2023-02-19T21:52:57.379Z,8.77
2023-02-19T21:55:00.257Z,8.43
2023-02-19T21:57:04.503Z,9.63
2023-02-19T21:59:07.657Z,8.90
2023-02-19T22:01:10.676Z,9.10
2023-02-19T22:03:16.270Z,10.00
2023-02-19T22:05:19.276Z,9.50
2023-02-19T22:07:22.516Z,9.83
2023-02-19T22:09:26.787Z,9.73
2023-02-19T22:11:29.767Z,10.60
2023-02-19T22:13:32.777Z,11.10
2023-02-19T22:15:35.747Z,10.60
2023-02-19T22:17:39.347Z,11.37
2023-02-19T22:19:42.336Z,11.40
2023-02-19T22:21:45.797Z,11.03
2023-02-19T22:23:49.690Z,11.00
2023-02-19T22:25:54.188Z,11.80
2023-02-19T22:27:59.440Z,12.87
2023-02-19T22:30:03.010Z,12.20
2023-02-19T22:32:06.340Z,12.77
2023-02-19T22:34:09.518Z,13.33
2023-02-19T22:36:17.246Z,13.80
2023-02-19T22:38:20.175Z,14.03
2023-02-19T22:40:23.250Z,12.50
2023-02-19T22:42:29.291Z,12.37
2023-02-19T22:44:32.168Z,13.00
2023-02-19T22:46:35.040Z,14.53
2023-02-19T22:48:37.890Z,14.07
2023-02-19T22:50:40.742Z,13.90
2023-02-19T22:52:43.562Z,13.33
2023-02-19T22:54:46.735Z,15.17
2023-02-19T22:56:49.626Z,14.80
2023-02-19T22:58:54.226Z,14.57
2023-02-19T23:00:57.095Z,14.50
2023-02-19T23:03:00.234Z,13.87
2023-02-19T23:05:03.315Z,14.33
2023-02-19T23:07:07.112Z,13.87
2023-02-19T23:09:11.748Z,13.00
2023-02-19T23:11:14.772Z,13.40
2023-02-19T23:13:17.624Z,12.47
2023-02-19T23:15:22.063Z,13.40
2023-02-19T23:17:24.890Z,13.73
2023-02-19T23:19:28.144Z,13.23
2023-02-19T23:21:31.825Z,13.80
2023-02-19T23:23:35.048Z,12.73
2023-02-19T23:25:38.057Z,12.90
2023-02-19T23:27:41.211Z,12.53
2023-02-19T23:29:44.071Z,11.47
2023-02-19T23:31:49.388Z,11.17
2023-02-19T23:33:52.362Z,9.90
2023-02-19T23:35:55.195Z,10.10
2023-02-19T23:37:58.049Z,9.70
2023-02-19T23:40:01.249Z,9.87
2023-02-19T23:42:04.466Z,9.33
2023-02-19T23:44:07.346Z,7.83
2023-02-19T23:46:11.041Z,6.80
2023-02-19T23:48:15.429Z,6.33
2023-02-19T23:50:18.713Z,6.33
2023-02-19T23:52:21.593Z,5.87
2023-02-19T23:54:24.485Z,5.70
2023-02-19T23:56:29.034Z,4.57
2023-02-19T23:58:31.874Z,5.27
